< Typhoon 197705 1977 Season Typhoon 197707 >
Typhoon 197706 (WANDA)
General InformationTrack Information on Google MapsDetailed Wind Information || Disaster Info.ResourceGoogle EarthGE AnimationAtom FeedGeoJSON
Detalied Best Track (Time Zone = UTC)
Year Month Day Hour Lat. Long. Pressure (hPa) Wind (kt) Class Image Chart
1977 7 30 00 19.3 139.0 1004 0 2 -- Chart
1977 7 30 06 20.2 139.1 1004 0 2 -- Chart
1977 7 30 12 21.0 139.3 1002 0 2 -- Chart
1977 7 30 18 22.0 139.5 1002 0 2 -- Chart
1977 7 31 00 22.7 139.7 1000 0 2 -- Chart
1977 7 31 06 23.5 139.9 1000 0 2 -- Chart
1977 7 31 12 24.1 140.1 1000 0 2 -- Chart
1977 7 31 18 25.0 140.2 1000 0 2 -- Chart
1977 8 1 00 25.7 140.2 994 40 3 -- Chart
1977 8 1 06 26.3 140.2 992 40 3 -- Chart
1977 8 1 12 26.8 140.2 992 40 3 -- Chart
1977 8 1 18 27.3 140.3 992 40 3 -- Chart
1977 8 2 00 27.9 140.8 992 40 3 -- Chart
1977 8 2 06 28.2 141.3 990 40 3 -- Chart
1977 8 2 12 28.9 142.0 990 40 3 -- Chart
1977 8 2 18 29.5 143.0 990 40 3 -- Chart
1977 8 3 00 30.2 143.8 985 40 3 -- Chart
1977 8 3 06 30.6 144.4 990 40 3 -- Chart
1977 8 3 12 30.8 145.0 990 40 3 -- Chart
1977 8 3 18 31.0 145.7 990 40 3 -- Chart
1977 8 4 00 31.2 146.2 990 40 3 -- Chart
1977 8 4 06 31.5 147.0 990 40 3 -- Chart
1977 8 4 12 31.6 147.8 992 40 3 -- Chart
1977 8 4 18 31.6 148.5 992 35 3 -- Chart
1977 8 5 00 31.7 148.8 992 35 3 -- Chart
1977 8 5 06 32.2 149.7 992 35 3 -- Chart
1977 8 5 12 33.0 150.8 994 35 3 -- Chart
1977 8 5 18 33.7 151.6 996 35 3 -- Chart
1977 8 6 00 34.5 152.3 996 35 3 -- Chart
1977 8 6 06 34.7 153.6 996 35 3 -- Chart
1977 8 6 12 35.0 155.0 996 35 3 -- Chart
1977 8 6 18 36.7 155.8 996 35 3 -- Chart
1977 8 7 00 40.0 154.9 996 0 2 -- Chart
1977 8 7 06 44.0 155.0 998 0 2 -- Chart
1977 8 7 12 47.0 154.3 996 0 6 -- Chart
1977 8 7 18 49.5 155.3 996 0 6 -- Chart
1977 8 8 00 53.0 155.2 996 0 6 -- Chart
1977 8 8 06 55.0 156.2 998 0 6 -- Chart
1977 8 8 12 57.0 159.0 1000 0 6 -- Chart
1977 8 8 18 58.0 162.9 1000 0 6 -- Chart
1977 8 9 00 58.7 166.0 1000 0 6 -- Chart
1977 8 9 06 59.0 169.0 998 0 6 -- Chart
1977 8 9 12 59.5 171.5 1000 0 6 -- Chart
1977 8 9 18 59.8 173.2 1002 0 6 -- Chart
1977 8 10 00 60.0 175.0 1002 0 6 -- Chart
1977 8 10 06 60.0 176.0 1002 0 6 -- Chart
1977 8 10 12 60.0 177.2 1004 0 6 -- Chart
Japan Meteorological Agency Best Track Data | Correction Date : 1992-10-21
< Typhoon 197705 1977 Season Typhoon 197707 >

Help